^^
MeteoGriva-Weather Station Historical Data
Daily Summary for August 13, 2020 Units:  English    Metric   Both
Daily Weekly Monthly Yearly Custom
  High: Low: Average:
Temperature: 46.8 °F 38.8 °F 42.6 °F
Dew Point: 45.7 °F 38.7 °F 42.3 °F
Humidity: 99% 93.2% 98%
Wind Speed: 0.3mph 0mph 0mph
Wind Gust: 4.9mph - -
Wind- - East
Pressure: 30.4 in 30.3 in -
Precipitation: 0 in    
Historical Graphs
 
 
Tabular Data for August 13, 2020
Time Temperature Dew Point Pressure Wind Wind Speed Wind Gust Humidity Rainfall Rate (Hourly) solar
00:04 41.5 °F 41.4 °F 30.4 in Calm     99% 0 in 0 W/m2
00:09 41.5 °F 41.4 °F 30.4 in Calm     99% 0 in 0 W/m2
00:14 41.5 °F 41.4 °F 30.4 in Calm     99% 0 in 0 W/m2
00:19 41.4 °F 41.2 °F 30.4 in Calm     99% 0 in 0 W/m2
00:24 41.4 °F 41.2 °F 30.4 in Calm     99% 0 in 0 W/m2
00:29 41.4 °F 41.2 °F 30.4 in Calm     99% 0 in 0 W/m2
00:34 41.4 °F 41.2 °F 30.4 in Calm     99% 0 in 0 W/m2
00:39 41.4 °F 41.2 °F 30.4 in Calm     99% 0 in 0 W/m2
00:44 41.2 °F 41 °F 30.4 in Calm     99% 0 in 0 W/m2
00:49 41.2 °F 41 °F 30.4 in Calm     99% 0 in 0 W/m2
00:54 41.2 °F 41 °F 30.4 in Calm     99% 0 in 0 W/m2
00:59 41.2 °F 41 °F 30.4 in Calm     99% 0 in 0 W/m2
01:04 41 °F 40.8 °F 30.4 in Calm     99% 0 in 0 W/m2
01:09 41 °F 40.8 °F 30.4 in Calm     99% 0 in 0 W/m2
01:14 41 °F 40.8 °F 30.4 in Calm     99% 0 in 0 W/m2
01:19 41 °F 40.8 °F 30.4 in Calm     99% 0 in 0 W/m2
01:24 41 °F 40.8 °F 30.4 in Calm     99% 0 in 0 W/m2
01:29 41 °F 40.8 °F 30.4 in Calm     99% 0 in 0 W/m2
01:34 41 °F 40.8 °F 30.4 in Calm     99% 0 in 0 W/m2
01:39 41 °F 40.8 °F 30.4 in Calm     99% 0 in 0 W/m2
01:44 41.2 °F 41 °F 30.4 in Calm     99% 0 in 0 W/m2
01:49 41.4 °F 41.2 °F 30.4 in Calm     99% 0 in 0 W/m2
01:54 41.4 °F 41.2 °F 30.4 in Calm     99% 0 in 0 W/m2
01:59 41.4 °F 41.2 °F 30.4 in Calm     99% 0 in 0 W/m2
02:04 41.5 °F 41.4 °F 30.4 in Calm     99% 0 in 0 W/m2
02:09 41.7 °F 41.5 °F 30.4 in ESE 0.2 mph 2.5 mph 99% 0 in 0 W/m2
02:14 41.5 °F 41.4 °F 30.4 in Calm     99% 0 in 0 W/m2
02:19 41.4 °F 41.2 °F 30.4 in Calm     99% 0 in 0 W/m2
02:24 40.5 °F 40.3 °F 30.4 in Calm     99% 0 in 0 W/m2
02:29 39.7 °F 39.6 °F 30.4 in Calm     99% 0 in 0 W/m2
02:34 39.7 °F 39.6 °F 30.4 in Calm     99% 0 in 0 W/m2
02:39 39.7 °F 39.6 °F 30.4 in Calm     99% 0 in 0 W/m2
02:44 40.1 °F 39.9 °F 30.4 in Calm     99% 0 in 0 W/m2
02:49 40.5 °F 40.3 °F 30.4 in Calm     99% 0 in 0 W/m2
02:54 40.3 °F 40.1 °F 30.4 in Calm     99% 0 in 0 W/m2
02:59 40.3 °F 40.1 °F 30.4 in Calm     99% 0 in 0 W/m2
03:04 40.1 °F 39.7 °F 30.4 in Calm     99% 0 in 0 W/m2
03:09 39.9 °F 39.7 °F 30.4 in Calm     99% 0 in 0 W/m2
03:14 39.9 °F 39.7 °F 30.4 in Calm     99% 0 in 0 W/m2
03:19 39.9 °F 39.7 °F 30.4 in Calm     99% 0 in 0 W/m2
03:24 40.1 °F 39.9 °F 30.4 in Calm     99% 0 in 0 W/m2
03:29 40.3 °F 40.1 °F 30.4 in Calm     99% 0 in 0 W/m2
03:34 40.3 °F 40.1 °F 30.4 in Calm     99% 0 in 0 W/m2
03:39 40.3 °F 40.1 °F 30.4 in Calm     99% 0 in 0 W/m2
03:44 40.5 °F 40.1 °F 30.4 in Calm     99% 0 in 0 W/m2
03:49 40.5 °F 40.3 °F 30.4 in Calm     99% 0 in 0 W/m2
03:54 40.5 °F 40.3 °F 30.4 in Calm     99% 0 in 0 W/m2
03:59 40.5 °F 40.3 °F 30.4 in Calm     99% 0 in 0 W/m2
04:04 40.8 °F 40.6 °F 30.4 in Calm     99% 0 in 0 W/m2
04:09 41 °F 40.8 °F 30.4 in Calm     99% 0 in 0 W/m2
04:14 41 °F 40.8 °F 30.4 in Calm     99% 0 in 0 W/m2
04:19 41 °F 40.8 °F 30.4 in Calm     99% 0 in 0 W/m2
04:24 41 °F 40.8 °F 30.4 in Calm     99% 0 in 0 W/m2
04:29 41.2 °F 41 °F 30.4 in Calm     99% 0 in 0 W/m2
04:34 41.2 °F 41 °F 30.4 in Calm     99% 0 in 0 W/m2
04:39 41.4 °F 41.2 °F 30.4 in Calm     99% 0 in 0 W/m2
04:44 41.5 °F 41.4 °F 30.4 in Calm     99% 0 in 0 W/m2
04:49 41.9 °F 41.7 °F 30.4 in Calm     99% 0 in 0 W/m2
04:54 41.9 °F 41.7 °F 30.4 in Calm     99% 0 in 0 W/m2
04:59 41.9 °F 41.7 °F 30.4 in Calm     99% 0 in 0 W/m2
05:04 42.3 °F 42.1 °F 30.4 in Calm     99% 0 in 0 W/m2
05:09 42.4 °F 42.3 °F 30.4 in Calm     99% 0 in 0 W/m2
05:14 42.4 °F 42.3 °F 30.4 in Calm     99% 0 in 0 W/m2
05:19 42.3 °F 42.1 °F 30.4 in Calm     99% 0 in 0 W/m2
05:24 42.3 °F 42.1 °F 30.4 in Calm     99% 0 in 0 W/m2
05:29 42.4 °F 42.3 °F 30.4 in Calm     99% 0 in 0 W/m2
05:34 42.3 °F 42.1 °F 30.4 in Calm     99% 0 in 0 W/m2
05:39 42.3 °F 42.1 °F 30.4 in Calm     99% 0 in 0 W/m2
05:44 42.3 °F 42.1 °F 30.4 in Calm     99% 0 in 0 W/m2
05:49 41.7 °F 41.5 °F 30.4 in Calm     99% 0 in 0 W/m2
05:54 41.7 °F 41.5 °F 30.4 in Calm     99% 0 in 0 W/m2
05:59 41.7 °F 41.5 °F 30.4 in Calm     99% 0 in 0 W/m2
06:04 41.7 °F 41.5 °F 30.4 in Calm     99% 0 in 0 W/m2
06:09 42.1 °F 41.9 °F 30.4 in Calm     99% 0 in 0 W/m2
06:14 42.1 °F 41.9 °F 30.4 in Calm     99% 0 in 0 W/m2
06:19 42.1 °F 41.9 °F 30.4 in Calm     99% 0 in 0 W/m2
06:24 42.1 °F 41.9 °F 30.4 in Calm     99% 0 in 0 W/m2
06:29 42.3 °F 42.1 °F 30.4 in Calm     99% 0 in 0 W/m2
06:34 42.3 °F 42.1 °F 30.4 in Calm     99% 0 in 0 W/m2
06:39 42.3 °F 42.1 °F 30.4 in Calm   2.5 mph 99% 0 in 0 W/m2
06:44 42.3 °F 42.1 °F 30.4 in Calm     99% 0 in 0 W/m2
06:49 42.3 °F 42.1 °F 30.4 in Calm     99% 0 in 0 W/m2
06:54 42.3 °F 42.1 °F 30.4 in Calm     99% 0 in 0 W/m2
06:59 42.1 °F 41.9 °F 30.4 in Calm     99% 0 in 0 W/m2
07:04 42.1 °F 41.9 °F 30.4 in Calm     99% 0 in 0 W/m2
07:09 42.3 °F 42.1 °F 30.4 in Calm     99% 0 in 0 W/m2
07:14 42.3 °F 42.1 °F 30.4 in Calm     99% 0 in 0 W/m2
07:19 42.3 °F 42.1 °F 30.4 in Calm     99% 0 in 0 W/m2
07:24 42.3 °F 42.1 °F 30.4 in Calm     99% 0 in 0 W/m2
07:29 42.3 °F 42.1 °F 30.4 in Calm     99% 0 in 0 W/m2
07:34 42.3 °F 41.9 °F 30.4 in Calm     99% 0 in 0 W/m2
07:39 42.1 °F 41.9 °F 30.4 in Calm     99% 0 in 0 W/m2
07:44 42.1 °F 41.9 °F 30.4 in Calm     99% 0 in 0 W/m2
07:49 42.1 °F 41.9 °F 30.4 in Calm     99% 0 in 0 W/m2
07:54 42.1 °F 41.9 °F 30.4 in Calm     99% 0 in 0 W/m2
07:59 41.9 °F 41.7 °F 30.4 in East 0.2 mph 2.5 mph 99% 0 in 0 W/m2
08:04 41.7 °F 41.5 °F 30.4 in Calm     99% 0 in 0 W/m2
08:09 41 °F 40.8 °F 30.4 in Calm     99% 0 in 2 W/m2
08:14 41 °F 40.8 °F 30.4 in Calm     99% 0 in 4 W/m2
08:19 41 °F 40.8 °F 30.4 in Calm     99% 0 in 6 W/m2
08:24 40.8 °F 40.6 °F 30.4 in Calm     99% 0 in 7 W/m2
08:29 40.5 °F 40.3 °F 30.4 in Calm     99% 0 in 9 W/m2
08:34 40.5 °F 40.3 °F 30.4 in Calm     99% 0 in 10 W/m2
08:39 40.5 °F 40.3 °F 30.4 in Calm     99% 0 in 11 W/m2
08:44 40.6 °F 40.5 °F 30.4 in Calm     99% 0 in 13 W/m2
08:49 41.2 °F 41 °F 30.4 in Calm     99% 0 in 19 W/m2
08:54 41 °F 40.8 °F 30.4 in Calm     99% 0 in 27 W/m2
08:59 41.2 °F 41 °F 30.4 in Calm     99% 0 in 41 W/m2
09:04 41.2 °F 41 °F 30.4 in Calm     99% 0 in 56 W/m2
09:09 41.9 °F 41.5 °F 30.4 in Calm     99% 0 in 64 W/m2
09:14 41.9 °F 41.7 °F 30.4 in Calm     99% 0 in 66 W/m2
09:19 41.9 °F 41.7 °F 30.4 in Calm     99% 0 in 61 W/m2
09:24 41.9 °F 41.7 °F 30.4 in Calm     99% 0 in 57 W/m2
09:29 41.7 °F 41.5 °F 30.4 in Calm     99% 0 in 79 W/m2
09:34 41.7 °F 41.5 °F 30.4 in Calm     99% 0 in 84 W/m2
09:39 41.9 °F 41.7 °F 30.4 in Calm     99% 0 in 66 W/m2
09:44 42.1 °F 41.9 °F 30.4 in Calm     99% 0 in 70 W/m2
09:49 42.6 °F 42.4 °F 30.4 in Calm     99% 0 in 65 W/m2
09:54 42.6 °F 42.4 °F 30.4 in Calm     99% 0 in 68 W/m2
09:59 42.4 °F 42.4 °F 30.4 in Calm     99% 0 in 68 W/m2
10:04 42.3 °F 42.3 °F 30.4 in Calm     99% 0 in 84 W/m2
10:09 43.3 °F 43.2 °F 30.4 in Calm     99% 0 in 91 W/m2
10:14 43.7 °F 43.5 °F 30.4 in Calm     99% 0 in 92 W/m2
10:19 43.7 °F 43.5 °F 30.4 in Calm     99% 0 in 93 W/m2
10:24 44.1 °F 43.9 °F 30.4 in Calm     99% 0 in 94 W/m2
10:29 44.8 °F 44.6 °F 30.4 in Calm     99% 0 in 95 W/m2
10:34 44.6 °F 44.4 °F 30.4 in Calm     99% 0 in 119 W/m2
10:39 44.4 °F 44.2 °F 30.4 in Calm     99% 0 in 119 W/m2
10:44 44.2 °F 44.2 °F 30.4 in Calm     99% 0 in 107 W/m2
10:49 43.3 °F 43.2 °F 30.4 in Calm     99% 0 in 95 W/m2
10:54 43.2 °F 43 °F 30.4 in Calm     99% 0 in 86 W/m2
10:59 43.2 °F 43 °F 30.4 in Calm     99% 0 in 102 W/m2
11:04 43.2 °F 43 °F 30.4 in Calm     99% 0 in 134 W/m2
11:09 43.9 °F 43.7 °F 30.4 in Calm     99% 0 in 153 W/m2
11:14 44.1 °F 43.9 °F 30.4 in Calm     99% 0 in 158 W/m2
11:19 44.1 °F 43.9 °F 30.4 in Calm     99% 0 in 165 W/m2
11:24 44.4 °F 43.9 °F 30.4 in Calm     97.7% 0 in 185 W/m2
11:29 45.5 °F 45.3 °F 30.4 in NE 0.2 mph 2.5 mph 99% 0 in 192 W/m2
11:34 45.7 °F 45.5 °F 30.4 in East 0.2 mph 4.9 mph 99% 0 in 162 W/m2
11:39 45.5 °F 45.3 °F 30.4 in Calm   2.5 mph 99% 0 in 140 W/m2
11:44 45.3 °F 45.1 °F 30.4 in Calm     99% 0 in 126 W/m2
11:49 45.1 °F 45 °F 30.4 in Calm     99% 0 in 112 W/m2
11:54 45 °F 44.8 °F 30.4 in ENE 0.2 mph 2.5 mph 99% 0 in 115 W/m2
11:59 45 °F 44.8 °F 30.4 in Calm     99% 0 in 117 W/m2
12:04 44.8 °F 44.6 °F 30.4 in Calm     99% 0 in 111 W/m2
12:09 44.6 °F 44.4 °F 30.4 in ENE 0.1 mph 2.5 mph 99% 0 in 115 W/m2
12:14 44.6 °F 44.4 °F 30.4 in Calm     99% 0 in 138 W/m2
12:19 44.8 °F 44.6 °F 30.4 in ESE 0.1 mph 2.5 mph 99% 0 in 138 W/m2
12:24 44.8 °F 44.6 °F 30.4 in Calm     99% 0 in 139 W/m2
12:29 45.5 °F 45.3 °F 30.4 in Calm     99% 0 in 148 W/m2
12:34 45.7 °F 45.5 °F 30.4 in Calm     99% 0 in 169 W/m2
12:39 45.7 °F 45.5 °F 30.4 in ENE 0.3 mph 4.9 mph 99% 0 in 157 W/m2
12:44 45.5 °F 45.3 °F 30.3 in Calm   4.9 mph 99% 0 in 144 W/m2
12:49 45.3 °F 45.1 °F 30.3 in Calm     99% 0 in 144 W/m2
12:54 45.3 °F 45.1 °F 30.3 in Calm     98.9% 0 in 149 W/m2
12:59 45.3 °F 45 °F 30.3 in Calm     98.4% 0 in 241 W/m2
13:04 45.5 °F 44.8 °F 30.3 in East 0.1 mph 2.5 mph 97% 0 in 192 W/m2
13:09 46 °F 45.1 °F 30.3 in Calm     96.3% 0 in 211 W/m2
13:14 46.6 °F 45.1 °F 30.3 in Calm     95% 0 in 184 W/m2
13:19 46.6 °F 45.5 °F 30.3 in Calm     96% 0 in 124 W/m2
13:24 46.6 °F 45.7 °F 30.3 in Calm   2.5 mph 96.3% 0 in 123 W/m2
13:29 46.2 °F 45.5 °F 30.3 in Calm     97% 0 in 123 W/m2
13:34 46 °F 44.8 °F 30.3 in Calm     95.3% 0 in 122 W/m2
13:39 46 °F 44.8 °F 30.3 in Calm     95.3% 0 in 116 W/m2
13:44 46.2 °F 45 °F 30.3 in Calm     95.7% 0 in 109 W/m2
13:49 46.2 °F 45.1 °F 30.3 in Calm     96% 0 in 105 W/m2
13:54 46.4 °F 45 °F 30.3 in Calm     95% 0 in 105 W/m2
13:59 46.2 °F 45.1 °F 30.3 in Calm     95.9% 0 in 94 W/m2
14:04 46.4 °F 45 °F 30.3 in Calm     95.4% 0 in 97 W/m2
14:09 46.2 °F 45.1 °F 30.3 in Calm     96.1% 0 in 106 W/m2
14:14 46.2 °F 45 °F 30.3 in Calm     95.4% 0 in 106 W/m2
14:19 46.2 °F 44.8 °F 30.3 in Calm     95% 0 in 111 W/m2
14:24 46.2 °F 44.6 °F 30.3 in Calm     93.9% 0 in 113 W/m2
14:29 46.4 °F 44.6 °F 30.3 in Calm     93.4% 0 in 126 W/m2
14:34 46.6 °F 45 °F 30.3 in Calm     94.1% 0 in 124 W/m2
14:39 46.4 °F 44.8 °F 30.3 in Calm     94% 0 in 110 W/m2
14:44 46.6 °F 44.8 °F 30.3 in Calm     93.6% 0 in 103 W/m2
14:49 46.8 °F 44.8 °F 30.3 in Calm     93.3% 0 in 98 W/m2
14:54 46.8 °F 45.1 °F 30.3 in Calm     94.2% 0 in 89 W/m2
14:59 46.8 °F 45.1 °F 30.3 in Calm     93.9% 0 in 81 W/m2
15:04 46.8 °F 44.8 °F 30.3 in Calm     93.2% 0 in 70 W/m2
15:09 46.8 °F 45.1 °F 30.3 in Calm     93.8% 0 in 67 W/m2
15:14 46.8 °F 45.1 °F 30.3 in Calm     94% 0 in 62 W/m2
15:19 46.6 °F 45.1 °F 30.3 in Calm     94.7% 0 in 61 W/m2
15:24 46.6 °F 45.1 °F 30.3 in Calm     95% 0 in 59 W/m2
15:29 46.6 °F 45.1 °F 30.3 in Calm     94.8% 0 in 65 W/m2
15:34 46.6 °F 45.1 °F 30.3 in Calm     94.6% 0 in 66 W/m2
15:39 46.6 °F 45.1 °F 30.3 in Calm     95% 0 in 70 W/m2
15:44 46.6 °F 45.3 °F 30.3 in Calm     95.3% 0 in 64 W/m2
15:49 46.4 °F 45.3 °F 30.3 in Calm     95.8% 0 in 61 W/m2
15:54 46.4 °F 45.1 °F 30.3 in Calm     95.3% 0 in 61 W/m2
15:59 46.4 °F 45 °F 30.3 in Calm     95% 0 in 56 W/m2
16:04 46.4 °F 45 °F 30.3 in Calm     95.1% 0 in 49 W/m2
16:09 46.4 °F 45.1 °F 30.3 in Calm     95.4% 0 in 49 W/m2
16:14 46.2 °F 45.1 °F 30.3 in Calm     96.1% 0 in 47 W/m2
16:19 46 °F 45.1 °F 30.3 in Calm     96.2% 0 in 46 W/m2
16:24 46 °F 45.5 °F 30.3 in Calm     97.6% 0 in 39 W/m2
16:29 46 °F 45.3 °F 30.3 in Calm     97.7% 0 in 32 W/m2
16:34 45.7 °F 45.1 °F 30.3 in Calm     98% 0 in 27 W/m2
16:39 45.5 °F 45.3 °F 30.3 in Calm     98.8% 0 in 29 W/m2
16:44 45.5 °F 45.3 °F 30.3 in Calm     99% 0 in 32 W/m2
16:49 45.1 °F 45 °F 30.3 in Calm     99% 0 in 32 W/m2
16:54 44.4 °F 44.2 °F 30.3 in Calm     99% 0 in 30 W/m2
16:59 44.2 °F 44.1 °F 30.3 in Calm     99% 0 in 25 W/m2
17:04 44.2 °F 44.1 °F 30.3 in Calm     99% 0 in 19 W/m2
17:09 44.1 °F 44.1 °F 30.3 in Calm     99% 0 in 16 W/m2
17:14 43.5 °F 43.3 °F 30.3 in Calm     99% 0 in 10 W/m2
17:19 43.5 °F 43.3 °F 30.3 in Calm     99% 0 in 7 W/m2
17:24 43.5 °F 43.3 °F 30.3 in Calm     99% 0 in 4 W/m2
17:29 43.5 °F 43.3 °F 30.3 in Calm     99% 0 in 0 W/m2
17:34 43.2 °F 43 °F 30.3 in Calm     99% 0 in 0 W/m2
17:39 43 °F 42.8 °F 30.3 in Calm     99% 0 in 0 W/m2
17:44 43 °F 42.8 °F 30.3 in Calm     99% 0 in 0 W/m2
17:49 43 °F 42.8 °F 30.3 in Calm     99% 0 in 0 W/m2
17:54 42.3 °F 42.1 °F 30.3 in Calm     99% 0 in 0 W/m2
17:59 42.3 °F 42.1 °F 30.3 in Calm     99% 0 in 0 W/m2
18:04 42.3 °F 42.1 °F 30.3 in Calm     99% 0 in 0 W/m2
18:09 42.3 °F 42.1 °F 30.3 in Calm     99% 0 in 0 W/m2
18:14 42.3 °F 42.1 °F 30.3 in Calm     99% 0 in 0 W/m2
18:19 42.3 °F 42.1 °F 30.3 in Calm     99% 0 in 0 W/m2
18:24 42.3 °F 42.1 °F 30.3 in Calm     99% 0 in 0 W/m2
18:29 42.3 °F 42.1 °F 30.3 in Calm     99% 0 in 0 W/m2
18:34 42.1 °F 41.9 °F 30.3 in Calm     99% 0 in 0 W/m2
18:39 42.1 °F 41.9 °F 30.3 in Calm     99% 0 in 0 W/m2
18:44 42.1 °F 41.9 °F 30.3 in Calm     99% 0 in 0 W/m2
18:49 41.9 °F 41.7 °F 30.3 in Calm     99% 0 in 0 W/m2
18:54 41.5 °F 41.2 °F 30.3 in Calm     99% 0 in 0 W/m2
18:59 41.4 °F 41.2 °F 30.3 in Calm     99% 0 in 0 W/m2
19:04 41.4 °F 41.2 °F 30.3 in Calm     99% 0 in 0 W/m2
19:09 41.5 °F 41.4 °F 30.3 in Calm     99% 0 in 0 W/m2
19:14 41.9 °F 41.7 °F 30.3 in Calm     99% 0 in 0 W/m2
19:19 41.9 °F 41.7 °F 30.3 in Calm     99% 0 in 0 W/m2
19:24 41.9 °F 41.7 °F 30.3 in Calm     99% 0 in 0 W/m2
19:29 41.9 °F 41.7 °F 30.3 in Calm     99% 0 in 0 W/m2
19:34 41.9 °F 41.7 °F 30.3 in Calm     99% 0 in 0 W/m2
19:39 41.9 °F 41.7 °F 30.3 in Calm     99% 0 in 0 W/m2
19:44 41.9 °F 41.7 °F 30.3 in Calm     99% 0 in 0 W/m2
19:49 41.9 °F 41.7 °F 30.3 in Calm     99% 0 in 0 W/m2
19:54 41.5 °F 41.5 °F 30.3 in Calm     99% 0 in 0 W/m2
19:59 41.5 °F 41.4 °F 30.3 in Calm     99% 0 in 0 W/m2
20:04 41.5 °F 41.4 °F 30.3 in Calm     99% 0 in 0 W/m2
20:09 41.5 °F 41.4 °F 30.3 in Calm     99% 0 in 0 W/m2
20:14 41.7 °F 41.5 °F 30.3 in Calm     99% 0 in 0 W/m2
20:19 41.7 °F 41.5 °F 30.3 in Calm     99% 0 in 0 W/m2
20:24 41.7 °F 41.5 °F 30.3 in Calm     99% 0 in 0 W/m2
20:29 41.7 °F 41.5 °F 30.3 in Calm     99% 0 in 0 W/m2
20:34 41.5 °F 41.4 °F 30.3 in Calm     99% 0 in 0 W/m2
20:39 41.5 °F 41.4 °F 30.3 in Calm     99% 0 in 0 W/m2
20:44 41.5 °F 41.5 °F 30.3 in Calm     99% 0 in 0 W/m2
20:49 41.7 °F 41.5 °F 30.3 in Calm     99% 0 in 0 W/m2
20:54 41.9 °F 41.7 °F 30.3 in Calm     99% 0 in 0 W/m2
20:59 41.7 °F 41.5 °F 30.3 in Calm     99% 0 in 0 W/m2
21:04 41.7 °F 41.5 °F 30.3 in Calm     99% 0 in 0 W/m2
21:09 41.7 °F 41.5 °F 30.3 in Calm     99% 0 in 0 W/m2
21:14 42.1 °F 41.9 °F 30.3 in Calm     99% 0 in 0 W/m2
21:19 42.4 °F 42.3 °F 30.3 in Calm     99% 0 in 0 W/m2
21:24 42.4 °F 42.3 °F 30.3 in Calm     99% 0 in 0 W/m2
21:29 42.4 °F 42.3 °F 30.3 in Calm     99% 0 in 0 W/m2
21:34 42.3 °F 42.3 °F 30.3 in Calm     99% 0 in 0 W/m2
21:39 42.3 °F 42.1 °F 30.3 in Calm     99% 0 in 0 W/m2
21:44 42.3 °F 42.1 °F 30.3 in Calm     99% 0 in 0 W/m2
21:49 42.1 °F 41.9 °F 30.3 in Calm     99% 0 in 0 W/m2
21:54 41.9 °F 41.7 °F 30.3 in Calm     99% 0 in 0 W/m2
21:59 41.9 °F 41.7 °F 30.3 in Calm     99% 0 in 0 W/m2
22:04 41.9 °F 41.7 °F 30.3 in Calm     99% 0 in 0 W/m2
22:09 41.9 °F 41.7 °F 30.3 in Calm     99% 0 in 0 W/m2
22:14 41.2 °F 41 °F 30.3 in Calm     99% 0 in 0 W/m2
22:19 41 °F 40.8 °F 30.3 in Calm     99% 0 in 0 W/m2
22:24 41 °F 40.8 °F 30.3 in Calm     99% 0 in 0 W/m2
22:29 41 °F 40.8 °F 30.3 in Calm     99% 0 in 0 W/m2
22:34 41.4 °F 41.2 °F 30.3 in Calm     99% 0 in 0 W/m2
22:39 41.4 °F 41.2 °F 30.3 in Calm     99% 0 in 0 W/m2
22:44 41.4 °F 41.2 °F 30.3 in Calm     99% 0 in 0 W/m2
22:49 41.4 °F 41.2 °F 30.3 in Calm     99% 0 in 0 W/m2
22:54 41.2 °F 41 °F 30.3 in Calm     99% 0 in 0 W/m2
22:59 40.8 °F 40.6 °F 30.3 in Calm     99% 0 in 0 W/m2
23:04 40.6 °F 40.6 °F 30.3 in Calm     99% 0 in 0 W/m2
23:09 40.5 °F 40.5 °F 30.3 in Calm     99% 0 in 0 W/m2
23:14 40.1 °F 39.9 °F 30.3 in Calm     99% 0 in 0 W/m2
23:19 39.7 °F 39.6 °F 30.3 in Calm     99% 0 in 0 W/m2
23:24 39.7 °F 39.6 °F 30.3 in Calm     99% 0 in 0 W/m2
23:29 39.7 °F 39.6 °F 30.3 in Calm     99% 0 in 0 W/m2
23:34 39.7 °F 39.6 °F 30.3 in Calm     99% 0 in 0 W/m2
23:39 39.6 °F 39.4 °F 30.3 in Calm     99% 0 in 0 W/m2
23:44 39.6 °F 39.4 °F 30.3 in Calm     99% 0 in 0 W/m2
23:49 39.4 °F 39.2 °F 30.3 in Calm     99% 0 in 0 W/m2
23:54 39.2 °F 38.8 °F 30.3 in Calm     99% 0 in 0 W/m2
23:59 38.8 °F 38.7 °F 30.3 in Calm     99% 0 in 0 W/m2
Juneau County Weather
Compliments of Weather Underground - 2 mb